createdAt,value
2022-10-25T00:01:36.949Z,12.13
2022-10-25T00:04:04.553Z,10.33
2022-10-25T00:06:31.916Z,11.03
2022-10-25T00:09:00.873Z,15.23
2022-10-25T00:11:30.121Z,12.63
2022-10-25T00:14:00.032Z,13.43
2022-10-25T00:16:28.945Z,13.10
2022-10-25T00:18:56.304Z,11.77
2022-10-25T00:21:24.120Z,16.27
2022-10-25T00:23:51.964Z,11.73
2022-10-25T00:26:21.226Z,13.03
2022-10-25T00:28:48.673Z,13.87
2022-10-25T00:31:17.344Z,16.83
2022-10-25T00:33:45.433Z,10.83
2022-10-25T00:36:14.117Z,11.57
2022-10-25T00:38:41.466Z,18.90
2022-10-25T00:41:09.888Z,12.50
2022-10-25T00:43:40.441Z,16.93
2022-10-25T00:46:12.279Z,14.90
2022-10-25T00:48:39.814Z,11.23
2022-10-25T00:51:07.265Z,13.73
2022-10-25T00:53:36.249Z,16.30
2022-10-25T00:56:05.292Z,10.43
2022-10-25T00:58:35.376Z,10.50
2022-10-25T01:01:05.442Z,11.70
2022-10-25T01:03:32.948Z,14.20
2022-10-25T01:06:00.671Z,10.70
2022-10-25T01:08:28.070Z,14.07
2022-10-25T01:10:55.393Z,12.37
2022-10-25T01:13:22.932Z,15.83
2022-10-25T01:15:58.769Z,11.30
2022-10-25T01:18:35.537Z,14.30
2022-10-25T01:21:31.945Z,10.60
2022-10-25T01:24:16.076Z,12.60
2022-10-25T01:27:16.782Z,14.27
2022-10-25T01:30:12.221Z,10.60
2022-10-25T01:32:43.420Z,15.87
2022-10-25T01:35:17.457Z,15.73
2022-10-25T01:37:54.798Z,18.87
2022-10-25T01:40:24.871Z,14.23
2022-10-25T01:42:59.559Z,16.57
2022-10-25T01:45:29.547Z,10.80
2022-10-25T01:48:00.785Z,14.03
2022-10-25T01:50:30.892Z,13.70
2022-10-25T01:52:58.270Z,16.60
2022-10-25T01:55:28.851Z,15.93
2022-10-25T01:58:08.788Z,10.57
2022-10-25T02:00:42.214Z,11.47
2022-10-25T02:03:22.484Z,14.00
2022-10-25T02:06:01.036Z,12.47
2022-10-25T02:08:34.453Z,18.13
2022-10-25T02:11:07.378Z,17.70
2022-10-25T02:13:43.780Z,14.70
2022-10-25T02:16:13.340Z,13.17
2022-10-25T02:18:45.210Z,14.23
2022-10-25T02:21:13.560Z,17.53
2022-10-25T02:23:41.521Z,12.53
2022-10-25T02:26:10.674Z,13.23
2022-10-25T02:28:39.350Z,12.83
2022-10-25T02:31:09.621Z,18.00
2022-10-25T02:33:39.196Z,17.30
2022-10-25T02:36:14.552Z,14.20
2022-10-25T02:38:42.800Z,11.80
2022-10-25T02:41:10.357Z,11.37
2022-10-25T02:43:37.709Z,19.80
2022-10-25T02:46:08.474Z,17.90
2022-10-25T02:48:36.080Z,17.87
2022-10-25T02:51:03.633Z,15.03
2022-10-25T02:53:33.059Z,15.13
2022-10-25T02:56:01.752Z,12.33
2022-10-25T02:58:31.578Z,17.73
2022-10-25T03:00:59.621Z,15.70
2022-10-25T03:03:27.582Z,12.27
2022-10-25T03:05:55.099Z,16.53
2022-10-25T03:08:22.694Z,16.30
2022-10-25T03:10:51.706Z,15.07
2022-10-25T03:13:19.092Z,15.27
2022-10-25T03:15:46.825Z,16.87
2022-10-25T03:18:15.184Z,16.10
2022-10-25T03:20:42.842Z,14.60
2022-10-25T03:23:10.462Z,15.43
2022-10-25T03:25:37.968Z,13.27
2022-10-25T03:28:07.134Z,17.77
2022-10-25T03:30:35.209Z,15.47
2022-10-25T03:33:02.767Z,21.50
2022-10-25T03:35:30.138Z,14.30
2022-10-25T03:37:57.465Z,19.27
2022-10-25T03:40:24.872Z,16.67
2022-10-25T03:42:52.272Z,16.07
2022-10-25T03:45:21.217Z,15.30
2022-10-25T03:47:48.856Z,14.43
2022-10-25T03:50:16.565Z,16.37
2022-10-25T03:52:43.956Z,15.87
2022-10-25T03:55:11.434Z,17.80
2022-10-25T03:57:38.757Z,17.73
2022-10-25T04:00:06.810Z,17.90
2022-10-25T04:02:40.340Z,19.13
2022-10-25T04:05:08.341Z,14.67
2022-10-25T04:07:35.655Z,18.63
2022-10-25T04:10:03.049Z,17.73
2022-10-25T04:12:30.390Z,18.87
2022-10-25T04:14:57.749Z,14.23
2022-10-25T04:17:25.124Z,15.07
2022-10-25T04:19:53.773Z,15.27
2022-10-25T04:22:21.093Z,15.93
2022-10-25T04:24:48.416Z,17.27
2022-10-25T04:27:15.751Z,15.47
2022-10-25T04:29:43.082Z,17.30
2022-10-25T04:32:10.561Z,14.17
2022-10-25T04:34:37.966Z,19.80
2022-10-25T04:37:06.648Z,16.73
2022-10-25T04:39:34.085Z,18.07
2022-10-25T04:42:01.436Z,14.77
2022-10-25T04:44:31.088Z,18.23
2022-10-25T04:46:58.397Z,20.60
2022-10-25T04:49:25.757Z,19.30
2022-10-25T04:51:53.084Z,20.73
2022-10-25T04:54:21.717Z,17.47
2022-10-25T04:56:49.047Z,20.93
2022-10-25T04:59:16.372Z,18.70
2022-10-25T05:01:43.792Z,16.60
2022-10-25T05:04:11.248Z,16.47
2022-10-25T05:06:38.593Z,17.73
2022-10-25T05:09:05.933Z,16.20
2022-10-25T05:11:34.619Z,19.80
2022-10-25T05:14:02.012Z,18.17
2022-10-25T05:16:29.415Z,18.10
2022-10-25T05:18:56.730Z,18.73
2022-10-25T05:21:28.281Z,17.30
2022-10-25T05:24:00.507Z,20.50
2022-10-25T05:26:30.266Z,20.83
2022-10-25T05:28:59.263Z,16.87
2022-10-25T05:31:27.701Z,20.23
2022-10-25T05:33:57.600Z,16.97
2022-10-25T05:36:25.249Z,24.87
2022-10-25T05:38:52.853Z,20.00
2022-10-25T05:41:20.483Z,19.03
2022-10-25T05:43:47.930Z,18.47
2022-10-25T05:46:21.703Z,21.47
2022-10-25T05:48:50.037Z,16.97
2022-10-25T05:51:33.343Z,22.73
2022-10-25T05:54:02.569Z,18.30
2022-10-25T05:56:31.291Z,20.17
2022-10-25T05:58:58.876Z,20.03
2022-10-25T06:01:27.813Z,17.77
2022-10-25T06:03:56.342Z,22.77
2022-10-25T06:06:24.320Z,24.87
2022-10-25T06:08:56.743Z,25.67
2022-10-25T06:11:24.735Z,19.17
2022-10-25T06:13:52.072Z,24.97
2022-10-25T06:16:20.706Z,20.80
2022-10-25T06:18:49.391Z,19.30
2022-10-25T06:21:18.453Z,21.47
2022-10-25T06:23:46.400Z,25.07
2022-10-25T06:26:15.654Z,20.60
2022-10-25T06:28:43.320Z,26.27
2022-10-25T06:31:12.297Z,22.77
2022-10-25T06:33:39.899Z,20.37
2022-10-25T06:36:13.174Z,23.10
2022-10-25T06:38:40.753Z,22.07
2022-10-25T06:41:11.204Z,21.43
2022-10-25T06:43:38.857Z,33.47
2022-10-25T06:46:07.229Z,20.77
2022-10-25T06:48:34.676Z,18.60
2022-10-25T06:51:02.987Z,24.60
2022-10-25T06:53:31.929Z,18.30
2022-10-25T06:56:04.724Z,24.77
2022-10-25T06:58:34.422Z,20.23
2022-10-25T07:01:03.400Z,23.73
2022-10-25T07:03:34.941Z,22.73
2022-10-25T07:06:03.321Z,22.23
2022-10-25T07:08:31.976Z,19.30
2022-10-25T07:10:59.575Z,17.70
2022-10-25T07:13:27.034Z,17.63
2022-10-25T07:15:54.485Z,25.60
2022-10-25T07:18:21.840Z,17.87
2022-10-25T07:20:50.449Z,21.53
2022-10-25T07:25:52.860Z,26.00
2022-10-25T07:28:20.245Z,19.73
2022-10-25T07:30:48.353Z,27.63
2022-10-25T07:33:16.447Z,20.60
2022-10-25T07:35:58.692Z,20.40
2022-10-25T07:38:33.245Z,22.83
2022-10-25T07:41:01.983Z,25.47
2022-10-25T07:43:30.121Z,23.43
2022-10-25T08:26:14.353Z,18.53
2022-10-25T08:28:41.688Z,18.20
2022-10-25T08:31:10.405Z,23.07
2022-10-25T08:33:37.952Z,21.90
2022-10-25T08:36:05.659Z,25.67
2022-10-25T08:38:33.049Z,18.70
2022-10-25T08:41:06.902Z,21.70
2022-10-25T08:43:50.932Z,20.50
2022-10-25T08:46:21.364Z,18.87
2022-10-25T08:48:52.428Z,20.43
2022-10-25T08:51:27.744Z,19.87
2022-10-25T09:28:25.437Z,23.37
2022-10-25T09:30:54.000Z,20.03
2022-10-25T09:33:28.219Z,20.90
2022-10-25T09:35:56.309Z,21.17
2022-10-25T09:38:29.174Z,21.17
2022-10-25T09:46:14.893Z,21.73
2022-10-25T09:48:49.309Z,26.17
2022-10-25T09:51:20.304Z,21.17
2022-10-25T09:53:48.049Z,20.93
2022-10-25T09:56:17.236Z,20.23
2022-10-25T09:58:47.017Z,21.10
2022-10-25T10:01:19.037Z,23.30
2022-10-25T10:03:52.293Z,20.63
2022-10-25T10:06:24.029Z,20.30
2022-10-25T10:08:52.867Z,20.33
2022-10-25T10:11:21.076Z,19.80
2022-10-25T10:13:49.953Z,20.20
2022-10-25T10:16:21.864Z,19.67
2022-10-25T10:18:50.694Z,22.30
2022-10-25T10:21:20.082Z,20.87
2022-10-25T10:23:53.354Z,20.60
2022-10-25T10:26:24.773Z,20.47
2022-10-25T10:29:07.767Z,21.07
2022-10-25T10:31:37.864Z,20.57
2022-10-25T10:34:08.343Z,20.13
2022-10-25T10:36:36.246Z,21.77
2022-10-25T10:39:21.035Z,21.27
2022-10-25T10:42:02.903Z,20.93
2022-10-25T10:44:34.217Z,21.40
2022-10-25T10:50:25.716Z,20.93
2022-10-25T10:52:59.795Z,20.97
2022-10-25T10:55:30.853Z,21.53
2022-10-25T10:58:03.732Z,21.17
2022-10-25T11:00:33.085Z,22.33
2022-10-25T11:03:00.715Z,21.63
2022-10-25T11:05:30.888Z,22.07
2022-10-25T11:08:00.009Z,21.23
2022-10-25T11:12:16.704Z,22.83
2022-10-25T11:14:44.081Z,22.33
2022-10-25T11:17:14.693Z,21.13
2022-10-25T11:20:01.810Z,23.57
2022-10-25T11:25:34.952Z,22.63
2022-10-25T11:28:15.581Z,22.73
2022-10-25T11:30:50.435Z,22.50
2022-10-25T11:33:28.119Z,23.23
2022-10-25T11:36:03.820Z,23.77
2022-10-25T11:38:41.658Z,23.17
2022-10-25T11:41:19.112Z,24.93
2022-10-25T11:43:57.223Z,23.40
2022-10-25T11:46:31.493Z,24.37
2022-10-25T11:49:13.749Z,24.33
2022-10-25T11:51:46.937Z,24.70
2022-10-25T11:54:21.351Z,24.17
2022-10-25T11:56:55.545Z,23.77
2022-10-25T11:59:26.260Z,23.70
2022-10-25T12:02:00.277Z,23.00
2022-10-25T12:04:45.747Z,23.17
2022-10-25T12:07:16.921Z,24.10
2022-10-25T12:09:52.237Z,23.30
2022-10-25T12:12:23.250Z,22.30
2022-10-25T12:14:55.629Z,22.80
2022-10-25T12:17:25.940Z,24.00
2022-10-25T12:19:55.603Z,22.67
2022-10-25T12:22:25.821Z,22.13
2022-10-25T12:24:57.585Z,23.03
2022-10-25T12:27:25.652Z,22.80
2022-10-25T12:29:58.121Z,23.07
2022-10-25T12:32:29.940Z,22.17
2022-10-25T12:34:58.698Z,23.43
2022-10-25T12:37:31.761Z,23.10
2022-10-25T12:39:59.246Z,22.63
2022-10-25T12:42:30.697Z,23.33
2022-10-25T12:45:12.064Z,22.93
2022-10-25T12:47:47.573Z,23.53
2022-10-25T12:50:41.720Z,22.53
2022-10-25T12:53:32.698Z,24.13
2022-10-25T12:56:03.357Z,23.20
2022-10-25T12:58:52.685Z,22.70
2022-10-25T13:01:34.977Z,22.73
2022-10-25T13:04:17.614Z,22.93
2022-10-25T13:06:45.665Z,23.43
2022-10-25T13:09:14.780Z,22.53
2022-10-25T13:11:44.153Z,21.97
2022-10-25T13:14:20.542Z,21.83
2022-10-25T13:16:49.280Z,22.07
2022-10-25T13:19:49.366Z,22.43
2022-10-25T13:22:39.456Z,21.90
2022-10-25T13:25:17.302Z,22.30
2022-10-25T13:28:17.905Z,22.27
2022-10-25T13:30:45.297Z,22.53
2022-10-25T13:33:33.266Z,21.70
2022-10-25T13:36:05.177Z,21.10
2022-10-25T13:38:39.011Z,21.30
2022-10-25T13:41:13.929Z,22.10
2022-10-25T13:44:01.377Z,21.20
2022-10-25T13:46:32.516Z,21.63
2022-10-25T13:49:02.355Z,21.43
2022-10-25T13:51:31.211Z,21.17
2022-10-25T13:54:02.670Z,20.20
2022-10-25T13:56:37.961Z,26.17
2022-10-25T13:59:05.454Z,22.20
2022-10-25T14:01:56.808Z,21.40
2022-10-25T14:04:44.005Z,21.80
2022-10-25T14:07:46.621Z,21.23
2022-10-25T14:10:24.145Z,21.83
2022-10-25T14:12:53.441Z,21.27
2022-10-25T14:15:31.425Z,21.63
2022-10-25T14:17:59.213Z,21.70
2022-10-25T14:20:29.690Z,22.80
2022-10-25T14:23:00.194Z,21.03
2022-10-25T14:25:34.084Z,21.37
2022-10-25T14:28:06.689Z,21.07
2022-10-25T14:30:38.049Z,23.47
2022-10-25T14:33:07.436Z,20.27
2022-10-25T14:35:39.153Z,20.40
2022-10-25T14:38:15.553Z,20.47
2022-10-25T14:40:42.909Z,20.07
2022-10-25T14:43:22.486Z,21.87
2022-10-25T14:45:57.017Z,21.13
2022-10-25T14:48:24.529Z,21.43
2022-10-25T14:50:53.781Z,20.43
2022-10-25T14:53:21.315Z,21.93
2022-10-25T14:55:53.628Z,19.43
2022-10-25T14:58:21.641Z,20.77
2022-10-25T15:00:54.302Z,21.20
2022-10-25T15:03:22.022Z,21.50
2022-10-25T15:05:49.479Z,21.00
2022-10-25T15:08:21.186Z,20.87
2022-10-25T15:10:51.233Z,21.30
2022-10-25T15:13:22.921Z,21.57
2022-10-25T15:15:51.834Z,20.97
2022-10-25T15:18:28.535Z,22.17
2022-10-25T15:21:06.479Z,21.53
2022-10-25T15:23:35.622Z,22.20
2022-10-25T15:26:26.998Z,21.27
2022-10-25T15:28:55.857Z,21.37
2022-10-25T15:31:24.994Z,22.53
2022-10-25T15:33:59.970Z,21.17
2022-10-25T15:36:28.913Z,21.23
2022-10-25T15:39:11.432Z,22.27
2022-10-25T15:41:40.189Z,22.20
2022-10-25T15:44:07.575Z,22.53
2022-10-25T15:46:37.794Z,22.47
2022-10-25T15:49:08.087Z,22.57
2022-10-25T15:51:37.717Z,23.30
2022-10-25T15:54:06.684Z,22.97
2022-10-25T15:56:34.101Z,22.30
2022-10-25T15:59:02.621Z,21.93
2022-10-25T16:01:30.374Z,22.47
2022-10-25T16:03:57.805Z,22.93
2022-10-25T16:06:26.888Z,23.87
2022-10-25T16:08:54.298Z,23.67
2022-10-25T16:11:22.957Z,22.87
2022-10-25T16:13:52.805Z,28.20
2022-10-25T16:16:39.413Z,32.33
2022-10-25T16:19:07.944Z,27.73
2022-10-25T16:21:35.304Z,29.03
2022-10-25T16:24:02.669Z,26.20
2022-10-25T16:26:35.205Z,30.50
2022-10-25T16:29:02.701Z,24.90
2022-10-25T16:31:30.072Z,28.70
2022-10-25T16:33:57.410Z,26.00
2022-10-25T16:36:24.797Z,25.60
2022-10-25T16:38:52.213Z,22.97
2022-10-25T16:41:24.912Z,22.73
2022-10-25T16:43:53.625Z,22.37
2022-10-25T16:46:21.045Z,22.83
2022-10-25T16:48:49.159Z,23.47
2022-10-25T16:51:18.112Z,23.20
2022-10-25T16:53:46.981Z,26.60
2022-10-25T16:56:14.979Z,28.20
2022-10-25T16:58:42.901Z,27.87
2022-10-25T17:01:21.981Z,29.70
2022-10-25T17:03:49.959Z,32.20
2022-10-25T17:06:39.764Z,25.70
2022-10-25T17:09:05.254Z,29.23
2022-10-25T17:11:32.589Z,29.70
2022-10-25T17:14:00.026Z,35.50
2022-10-25T17:16:28.677Z,34.87
2022-10-25T17:18:56.193Z,35.13
2022-10-25T17:21:23.767Z,25.97
2022-10-25T17:23:51.169Z,33.00
2022-10-25T17:26:18.576Z,25.97
2022-10-25T17:28:45.912Z,29.77
2022-10-25T17:31:15.696Z,21.90
2022-10-25T17:33:44.678Z,28.23
2022-10-25T17:36:13.866Z,26.03
2022-10-25T17:38:41.304Z,30.17
2022-10-25T17:41:10.545Z,21.53
2022-10-25T17:43:38.800Z,22.77
2022-10-25T17:46:10.256Z,25.40
2022-10-25T17:48:37.715Z,29.97
2022-10-25T17:51:08.289Z,30.33
2022-10-25T17:53:36.108Z,42.53
2022-10-25T17:56:10.933Z,24.80
2022-10-25T17:58:38.338Z,21.43
2022-10-25T18:01:06.256Z,27.37
2022-10-25T18:03:33.749Z,20.17
2022-10-25T18:06:01.413Z,21.27
2022-10-25T18:08:30.244Z,24.47
2022-10-25T18:10:57.679Z,37.93
2022-10-25T18:13:26.899Z,36.37
2022-10-25T18:15:54.401Z,33.67
2022-10-25T18:18:21.859Z,26.40
2022-10-25T18:20:51.518Z,26.00
2022-10-25T18:23:19.070Z,25.13
2022-10-25T18:25:52.771Z,21.83
2022-10-25T18:28:20.303Z,24.83
2022-10-25T18:30:51.978Z,20.33
2022-10-25T18:33:23.673Z,21.93
2022-10-25T18:35:58.054Z,19.70
2022-10-25T18:38:25.865Z,23.10
2022-10-25T18:40:55.022Z,20.57
2022-10-25T18:43:23.440Z,29.17
2022-10-25T18:45:51.782Z,30.40
2022-10-25T18:48:19.889Z,32.90
2022-10-25T18:50:48.787Z,30.47
2022-10-25T18:53:19.119Z,29.17
2022-10-25T18:55:48.689Z,26.20
2022-10-25T18:58:19.484Z,23.20
2022-10-25T19:00:49.407Z,27.93
2022-10-25T19:03:18.829Z,22.43
2022-10-25T19:05:48.323Z,25.50
2022-10-25T19:08:17.913Z,25.83
2022-10-25T19:10:47.696Z,23.53
2022-10-25T19:13:20.439Z,26.70
2022-10-25T19:15:50.415Z,23.63
2022-10-25T19:18:20.158Z,25.23
2022-10-25T19:20:49.691Z,24.60
2022-10-25T19:23:19.466Z,27.90
2022-10-25T19:25:49.099Z,23.87
2022-10-25T19:28:20.113Z,25.60
2022-10-25T19:30:49.744Z,23.20
2022-10-25T19:33:19.306Z,23.83
2022-10-25T19:35:48.898Z,23.73
2022-10-25T19:38:21.901Z,26.73
2022-10-25T19:40:54.185Z,22.70
2022-10-25T19:43:25.633Z,23.43
2022-10-25T19:45:58.766Z,23.77
2022-10-25T19:48:29.065Z,27.63
2022-10-25T19:50:58.694Z,22.07
2022-10-25T19:53:28.194Z,22.93
2022-10-25T19:56:01.087Z,26.23
2022-10-25T19:58:32.090Z,22.77
2022-10-25T20:01:07.135Z,21.43
2022-10-25T20:03:36.925Z,22.80
2022-10-25T20:06:09.281Z,26.30
2022-10-25T20:08:40.598Z,20.03
2022-10-25T20:11:11.662Z,23.40
2022-10-25T20:13:42.929Z,20.27
2022-10-25T20:16:17.375Z,20.00
2022-10-25T20:18:46.700Z,21.83
2022-10-25T20:21:17.253Z,23.57
2022-10-25T20:23:50.542Z,23.13
2022-10-25T20:26:22.120Z,21.60
2022-10-25T20:28:54.258Z,21.30
2022-10-25T20:31:24.541Z,22.30
2022-10-25T20:33:54.164Z,20.83
2022-10-25T20:36:23.753Z,25.37
2022-10-25T20:38:53.331Z,22.27
2022-10-25T20:41:23.834Z,24.60
2022-10-25T20:43:55.222Z,21.90
2022-10-25T20:46:25.030Z,26.83
2022-10-25T20:48:53.524Z,25.67
2022-10-25T20:51:21.286Z,47.37
2022-10-25T20:53:54.551Z,37.80
2022-10-25T20:56:22.619Z,23.80
2022-10-25T20:58:50.106Z,33.40
2022-10-25T21:01:19.452Z,26.23
2022-10-25T21:03:47.025Z,27.10
2022-10-25T21:06:14.517Z,20.37
2022-10-25T21:08:42.091Z,16.83
2022-10-25T21:11:12.685Z,17.43
2022-10-25T21:13:40.521Z,18.20
2022-10-25T21:16:08.597Z,15.60
2022-10-25T21:18:37.555Z,17.50
2022-10-25T21:21:06.883Z,18.93
2022-10-25T21:23:34.333Z,16.90
2022-10-25T21:26:02.878Z,16.40
2022-10-25T21:28:33.376Z,15.97
2022-10-25T21:31:01.697Z,16.17
2022-10-25T21:33:31.022Z,14.73
2022-10-25T21:36:05.054Z,15.33
2022-10-25T21:38:32.443Z,15.23
2022-10-25T21:41:07.380Z,16.40
2022-10-25T21:43:34.777Z,15.90
2022-10-25T21:46:05.146Z,15.60
2022-10-25T21:48:32.558Z,15.03
2022-10-25T21:50:59.878Z,15.97
2022-10-25T21:53:28.559Z,15.47
2022-10-25T21:56:07.096Z,15.17
2022-10-25T21:58:34.518Z,16.60
2022-10-25T22:01:01.879Z,15.23
2022-10-25T22:03:30.544Z,16.70
2022-10-25T22:05:58.180Z,16.40
2022-10-25T22:08:25.537Z,16.07
2022-10-25T22:13:31.657Z,15.80
2022-10-25T22:16:00.428Z,15.90
2022-10-25T22:18:28.149Z,16.27
2022-10-25T22:20:57.256Z,15.63
2022-10-25T22:23:26.305Z,15.67
2022-10-25T22:25:53.864Z,17.77
2022-10-25T22:28:22.570Z,15.33
2022-10-25T22:30:50.062Z,15.83
2022-10-25T22:33:17.435Z,17.93
2022-10-25T22:35:44.754Z,17.47
2022-10-25T22:38:12.093Z,19.13
2022-10-25T22:40:39.426Z,17.60
2022-10-25T22:43:06.757Z,17.27
2022-10-25T22:45:36.295Z,18.20
2022-10-25T22:48:03.667Z,19.57
2022-10-25T22:50:31.009Z,18.57
2022-10-25T22:52:58.351Z,18.40
2022-10-25T22:55:25.692Z,16.87
2022-10-25T22:57:54.210Z,18.00
2022-10-25T23:00:21.646Z,17.70
2022-10-25T23:02:50.566Z,17.23
2022-10-25T23:05:18.082Z,17.50
2022-10-25T23:07:45.425Z,17.50
2022-10-25T23:10:14.347Z,17.63
2022-10-25T23:12:41.729Z,17.10
2022-10-25T23:15:09.570Z,18.43
2022-10-25T23:17:36.948Z,18.60
2022-10-25T23:20:06.757Z,16.80
2022-10-25T23:22:34.193Z,17.60
2022-10-25T23:25:01.567Z,17.63
2022-10-25T23:27:29.060Z,16.93
2022-10-25T23:29:56.413Z,17.60
2022-10-25T23:32:23.797Z,16.23
2022-10-25T23:34:52.596Z,17.67
2022-10-25T23:37:23.721Z,17.80
2022-10-25T23:39:53.884Z,17.50
2022-10-25T23:42:21.212Z,17.63
2022-10-25T23:44:48.514Z,17.00
2022-10-25T23:47:15.845Z,17.47
2022-10-25T23:49:43.157Z,24.20
2022-10-25T23:52:10.490Z,17.67
2022-10-25T23:54:39.133Z,17.83
2022-10-25T23:57:06.468Z,17.10
2022-10-25T23:59:33.818Z,17.97
